Time,TemperatureF,DewpointF,PressureIn,WindDirection,WindDirectionDegrees,WindSpeedMPH,WindSpeedGustMPH,Humidity,HourlyPrecipIn,Conditions,Clouds,dailyrainin,SoftwareType,DateUTC
2013-08-16 00:03:00,65.9,62.6,29.92,SSE,167,1.0,2.0,89,0.00,,,0.00,Wunderground v.1.15,2013-08-16 07:03:00,
2013-08-16 00:13:00,65.9,62.6,29.92,SSE,167,1.0,1.0,89,0.00,,,0.00,Wunderground v.1.15,2013-08-16 07:13:00,
2013-08-16 00:18:00,65.9,62.6,29.92,SSE,167,1.0,1.0,89,0.00,,,0.00,Wunderground v.1.15,2013-08-16 07:18:00,
2013-08-16 00:23:00,65.8,62.5,29.92,SSE,167,1.0,1.0,89,0.00,,,0.00,Wunderground v.1.15,2013-08-16 07:23:00,
2013-08-16 00:33:00,65.8,62.5,29.92,SSE,167,0.0,1.0,89,0.00,,,0.00,Wunderground v.1.15,2013-08-16 07:33:00,
2013-08-16 00:43:00,65.7,62.4,29.92,SSE,167,1.0,1.0,89,0.00,,,0.00,Wunderground v.1.15,2013-08-16 07:43:00,
2013-08-16 00:48:00,65.7,62.4,29.92,SSE,167,0.0,1.0,89,0.00,,,0.00,Wunderground v.1.15,2013-08-16 07:48:00,
2013-08-16 00:58:00,65.7,62.4,29.91,SSE,167,0.0,1.0,89,0.00,,,0.00,Wunderground v.1.15,2013-08-16 07:58:00,
2013-08-16 01:08:00,65.6,62.3,29.91,SSE,167,1.0,1.0,89,0.00,,,0.00,Wunderground v.1.15,2013-08-16 08:08:00,
2013-08-16 01:18:00,65.6,62.3,29.91,SSE,167,0.0,0.0,89,0.00,,,0.00,Wunderground v.1.15,2013-08-16 08:18:00,
2013-08-16 01:23:00,65.6,62.3,29.91,SSE,167,0.0,0.0,89,0.00,,,0.00,Wunderground v.1.15,2013-08-16 08:23:00,
2013-08-16 01:33:00,65.5,62.5,29.91,SSE,167,0.0,1.0,90,0.00,,,0.00,Wunderground v.1.15,2013-08-16 08:33:00,
2013-08-16 01:38:00,65.5,62.5,29.91,SSE,167,0.0,1.0,90,0.00,,,0.00,Wunderground v.1.15,2013-08-16 08:38:00,
2013-08-16 01:43:00,65.5,62.5,29.91,SSE,167,0.0,0.0,90,0.00,,,0.00,Wunderground v.1.15,2013-08-16 08:43:00,
2013-08-16 01:53:00,65.5,62.5,29.91,SSE,167,1.0,1.0,90,0.00,,,0.00,Wunderground v.1.15,2013-08-16 08:53:00,
2013-08-16 01:58:00,65.5,62.5,29.90,SSE,167,0.0,1.0,90,0.00,,,0.00,Wunderground v.1.15,2013-08-16 08:58:00,
2013-08-16 02:03:00,65.5,62.5,29.90,SSE,167,0.0,1.0,90,0.00,,,0.00,Wunderground v.1.15,2013-08-16 09:03:00,
2013-08-16 02:13:00,65.4,62.4,29.90,SSE,167,0.0,0.0,90,0.00,,,0.00,Wunderground v.1.15,2013-08-16 09:13:00,
2013-08-16 02:18:00,65.4,62.4,29.90,SSE,167,0.0,1.0,90,0.00,,,0.00,Wunderground v.1.15,2013-08-16 09:18:00,
2013-08-16 02:23:00,65.3,62.3,29.90,SSE,167,0.0,0.0,90,0.00,,,0.00,Wunderground v.1.15,2013-08-16 09:23:00,
2013-08-16 02:33:00,65.3,62.3,29.90,SSE,167,0.0,0.0,90,0.00,,,0.00,Wunderground v.1.15,2013-08-16 09:33:00,
2013-08-16 02:38:00,65.3,62.3,29.90,SSE,167,0.0,1.0,90,0.00,,,0.00,Wunderground v.1.15,2013-08-16 09:38:00,
2013-08-16 02:48:00,65.2,62.2,29.90,SSE,167,0.0,0.0,90,0.00,,,0.00,Wunderground v.1.15,2013-08-16 09:48:00,
2013-08-16 02:53:00,65.1,62.1,29.90,SSE,167,0.0,0.0,90,0.00,,,0.00,Wunderground v.1.15,2013-08-16 09:53:00,
2013-08-16 03:03:00,65.0,62.3,29.90,SSE,167,0.0,0.0,91,0.00,,,0.00,Wunderground v.1.15,2013-08-16 10:03:00,
2013-08-16 03:08:00,65.0,62.3,29.90,SSE,167,0.0,0.0,91,0.00,,,0.00,Wunderground v.1.15,2013-08-16 10:08:00,
2013-08-16 03:13:00,65.0,62.3,29.90,SSE,167,0.0,0.0,91,0.00,,,0.00,Wunderground v.1.15,2013-08-16 10:13:00,
2013-08-16 03:23:00,64.9,62.2,29.90,SSE,167,0.0,0.0,91,0.00,,,0.00,Wunderground v.1.15,2013-08-16 10:23:00,
2013-08-16 03:33:00,64.9,62.2,29.90,SSE,167,0.0,0.0,91,0.00,,,0.00,Wunderground v.1.15,2013-08-16 10:33:00,
2013-08-16 03:43:00,64.8,62.1,29.90,SSE,167,0.0,0.0,91,0.00,,,0.00,Wunderground v.1.15,2013-08-16 10:43:00,
2013-08-16 03:53:00,64.8,62.1,29.90,SSE,167,0.0,0.0,91,0.00,,,0.00,Wunderground v.1.15,2013-08-16 10:53:00,
2013-08-16 03:58:00,64.8,62.1,29.90,SSE,167,0.0,0.0,91,0.00,,,0.00,Wunderground v.1.15,2013-08-16 10:58:00,
2013-08-16 04:08:00,64.7,62.0,29.89,SSE,167,0.0,0.0,91,0.00,,,0.00,Wunderground v.1.15,2013-08-16 11:08:00,
2013-08-16 04:13:00,64.6,61.9,29.90,SSE,167,0.0,0.0,91,0.00,,,0.00,Wunderground v.1.15,2013-08-16 11:13:00,
2013-08-16 04:18:00,64.5,61.8,29.89,SSE,167,0.0,0.0,91,0.00,,,0.00,Wunderground v.1.15,2013-08-16 11:18:00,
2013-08-16 04:28:00,64.3,61.9,29.89,SSE,167,0.0,0.0,92,0.00,,,0.00,Wunderground v.1.15,2013-08-16 11:28:00,
2013-08-16 04:38:00,64.3,61.9,29.89,SSE,167,0.0,0.0,92,0.00,,,0.00,Wunderground v.1.15,2013-08-16 11:38:00,
2013-08-16 04:48:00,64.2,61.8,29.89,SSE,167,0.0,0.0,92,0.00,,,0.00,Wunderground v.1.15,2013-08-16 11:48:00,
2013-08-16 04:53:00,64.2,61.5,29.89,SSE,167,0.0,0.0,91,0.00,,,0.00,Wunderground v.1.15,2013-08-16 11:53:00,
2013-08-16 04:58:00,64.2,61.5,29.89,SSE,167,0.0,0.0,91,0.00,,,0.00,Wunderground v.1.15,2013-08-16 11:58:00,
2013-08-16 05:03:00,64.2,61.8,29.89,SSE,167,0.0,0.0,92,0.00,,,0.00,Wunderground v.1.15,2013-08-16 12:03:00,
2013-08-16 05:13:00,64.2,61.8,29.89,SSE,167,0.0,0.0,92,0.00,,,0.00,Wunderground v.1.15,2013-08-16 12:13:00,
2013-08-16 05:18:00,64.2,61.8,29.89,SSE,167,0.0,0.0,92,0.00,,,0.00,Wunderground v.1.15,2013-08-16 12:18:00,
2013-08-16 05:28:00,64.1,61.7,29.89,SSE,167,0.0,0.0,92,0.00,,,0.00,Wunderground v.1.15,2013-08-16 12:28:00,
2013-08-16 05:33:00,64.1,61.7,29.89,SSE,167,0.0,0.0,92,0.00,,,0.00,Wunderground v.1.15,2013-08-16 12:33:00,
2013-08-16 05:38:00,64.0,61.6,29.89,SSE,167,0.0,0.0,92,0.00,,,0.00,Wunderground v.1.15,2013-08-16 12:38:00,
2013-08-16 05:48:00,64.0,61.6,29.89,SSE,167,0.0,0.0,92,0.00,,,0.00,Wunderground v.1.15,2013-08-16 12:48:00,
2013-08-16 05:53:00,63.9,61.5,29.89,SSE,167,0.0,0.0,92,0.00,,,0.00,Wunderground v.1.15,2013-08-16 12:53:00,
2013-08-16 06:03:00,63.7,61.3,29.89,SSE,167,0.0,0.0,92,0.00,,,0.00,Wunderground v.1.15,2013-08-16 13:03:00,
2013-08-16 06:13:00,63.6,61.2,29.90,SSE,167,0.0,0.0,92,0.00,,,0.00,Wunderground v.1.15,2013-08-16 13:13:00,
2013-08-16 06:18:00,63.6,61.2,29.90,SSE,167,0.0,0.0,92,0.00,,,0.00,Wunderground v.1.15,2013-08-16 13:18:00,
2013-08-16 06:23:00,63.6,61.2,29.90,SSE,167,0.0,0.0,92,0.00,,,0.00,Wunderground v.1.15,2013-08-16 13:23:00,
2013-08-16 06:28:00,63.6,61.2,29.90,SSE,167,0.0,0.0,92,0.00,,,0.00,Wunderground v.1.15,2013-08-16 13:28:00,
2013-08-16 06:38:00,63.7,61.3,29.90,SSE,167,0.0,0.0,92,0.00,,,0.00,Wunderground v.1.15,2013-08-16 13:38:00,
2013-08-16 06:43:00,63.9,61.5,29.90,SSE,167,0.0,0.0,92,0.00,,,0.00,Wunderground v.1.15,2013-08-16 13:43:00,
2013-08-16 06:53:00,64.4,62.0,29.91,SSE,167,0.0,0.0,92,0.00,,,0.00,Wunderground v.1.15,2013-08-16 13:53:00,
2013-08-16 06:58:00,64.8,62.1,29.90,SSE,167,0.0,0.0,91,0.00,,,0.00,Wunderground v.1.15,2013-08-16 13:58:00,
2013-08-16 07:03:00,65.1,62.1,29.91,SSE,167,0.0,0.0,90,0.00,,,0.00,Wunderground v.1.15,2013-08-16 14:03:00,
2013-08-16 07:13:00,65.9,62.6,29.91,SSE,167,0.0,0.0,89,0.00,,,0.00,Wunderground v.1.15,2013-08-16 14:13:00,
2013-08-16 07:23:00,66.4,63.1,29.92,SSE,167,1.0,1.0,89,0.00,,,0.00,Wunderground v.1.15,2013-08-16 14:23:00,
2013-08-16 07:28:00,66.5,63.2,29.92,SSE,167,1.0,1.0,89,0.00,,,0.00,Wunderground v.1.15,2013-08-16 14:28:00,
2013-08-16 07:33:00,66.6,62.9,29.92,SSE,167,1.0,1.0,88,0.00,,,0.00,Wunderground v.1.15,2013-08-16 14:33:00,
2013-08-16 07:43:00,67.0,63.3,29.92,SSE,167,1.0,1.0,88,0.00,,,0.00,Wunderground v.1.15,2013-08-16 14:43:00,
2013-08-16 07:53:00,67.5,63.5,29.92,SSE,167,0.0,0.0,87,0.00,,,0.00,Wunderground v.1.15,2013-08-16 14:53:00,
2013-08-16 07:58:00,67.8,63.5,29.92,SSE,167,1.0,1.0,86,0.00,,,0.00,Wunderground v.1.15,2013-08-16 14:58:00,
2013-08-16 08:08:00,68.2,63.5,29.92,SSE,167,1.0,1.0,85,0.00,,,0.00,Wunderground v.1.15,2013-08-16 15:08:00,
2013-08-16 08:18:00,69.2,64.2,29.92,SSE,167,0.0,2.0,84,0.00,,,0.00,Wunderground v.1.15,2013-08-16 15:18:00,
2013-08-16 08:23:00,69.4,64.4,29.92,SSE,167,1.0,1.0,84,0.00,,,0.00,Wunderground v.1.15,2013-08-16 15:23:00,
2013-08-16 08:28:00,69.6,64.2,29.93,SSE,167,1.0,1.0,83,0.00,,,0.00,Wunderground v.1.15,2013-08-16 15:28:00,
2013-08-16 08:38:00,69.9,64.2,29.92,SSE,167,1.0,1.0,82,0.00,,,0.00,Wunderground v.1.15,2013-08-16 15:38:00,
2013-08-16 08:48:00,70.6,64.5,29.92,SSE,167,1.0,2.0,81,0.00,,,0.00,Wunderground v.1.15,2013-08-16 15:48:00,
2013-08-16 08:53:00,70.8,64.3,29.92,SSE,167,1.0,2.0,80,0.00,,,0.00,Wunderground v.1.15,2013-08-16 15:53:00,
2013-08-16 08:58:00,71.3,64.8,29.92,SSE,167,1.0,2.0,80,0.00,,,0.00,Wunderground v.1.15,2013-08-16 15:58:00,
2013-08-16 09:08:00,72.1,64.9,29.92,SSE,167,1.0,3.0,78,0.00,,,0.00,Wunderground v.1.15,2013-08-16 16:08:00,
2013-08-16 09:13:00,72.1,64.9,29.92,SSE,167,1.0,1.0,78,0.00,,,0.00,Wunderground v.1.15,2013-08-16 16:13:00,
2013-08-16 09:18:00,72.4,64.8,29.92,SW,228,2.0,3.0,77,0.00,,,0.00,Wunderground v.1.15,2013-08-16 16:18:00,
2013-08-16 09:28:00,72.9,64.9,29.92,WSW,248,2.0,3.0,76,0.00,,,0.00,Wunderground v.1.15,2013-08-16 16:28:00,
2013-08-16 09:33:00,73.3,64.9,29.92,WSW,248,1.0,2.0,75,0.00,,,0.00,Wunderground v.1.15,2013-08-16 16:33:00,
2013-08-16 09:43:00,73.9,65.1,29.92,WSW,248,1.0,2.0,74,0.00,,,0.00,Wunderground v.1.15,2013-08-16 16:43:00,
2013-08-16 09:48:00,74.3,65.5,29.92,SW,233,1.0,2.0,74,0.00,,,0.00,Wunderground v.1.15,2013-08-16 16:48:00,
2013-08-16 09:58:00,74.9,65.3,29.92,SW,228,2.0,2.0,72,0.00,,,0.00,Wunderground v.1.15,2013-08-16 16:58:00,
2013-08-16 10:03:00,75.6,65.5,29.92,SW,228,2.0,2.0,71,0.00,,,0.00,Wunderground v.1.15,2013-08-16 17:03:00,
2013-08-16 10:08:00,76.2,65.7,29.93,South,169,2.0,2.0,70,0.00,,,0.00,Wunderground v.1.15,2013-08-16 17:08:00,
2013-08-16 10:13:00,76.9,65.5,29.93,SSE,148,2.0,2.0,68,0.00,,,0.00,Wunderground v.1.15,2013-08-16 17:13:00,
2013-08-16 10:23:00,78.1,65.8,29.93,South,173,2.0,3.0,66,0.00,,,0.00,Wunderground v.1.15,2013-08-16 17:23:00,
2013-08-16 10:33:00,78.9,65.7,29.92,SSE,154,3.0,3.0,64,0.00,,,0.00,Wunderground v.1.15,2013-08-16 17:33:00,
2013-08-16 10:38:00,79.4,65.2,29.92,South,170,2.0,3.0,62,0.00,,,0.00,Wunderground v.1.15,2013-08-16 17:38:00,
2013-08-16 10:43:00,79.8,65.6,29.92,SSW,196,2.0,2.0,62,0.00,,,0.00,Wunderground v.1.15,2013-08-16 17:43:00,
2013-08-16 10:48:00,80.0,65.3,29.92,SSW,205,2.0,2.0,61,0.00,,,0.00,Wunderground v.1.15,2013-08-16 17:48:00,
2013-08-16 10:53:00,80.3,65.1,29.92,SSE,165,2.0,4.0,60,0.00,,,0.00,Wunderground v.1.15,2013-08-16 17:53:00,
2013-08-16 10:58:00,80.5,64.9,29.92,South,183,2.0,4.0,59,0.00,,,0.00,Wunderground v.1.15,2013-08-16 17:58:00,
2013-08-16 11:03:00,81.0,64.8,29.92,South,183,2.0,2.0,58,0.00,,,0.00,Wunderground v.1.15,2013-08-16 18:03:00,
2013-08-16 11:08:00,80.8,64.1,29.92,West,260,2.0,2.0,57,0.00,,,0.00,Wunderground v.1.15,2013-08-16 18:08:00,
2013-08-16 11:13:00,81.3,65.6,29.92,South,188,2.0,4.0,59,0.00,,,0.00,Wunderground v.1.15,2013-08-16 18:13:00,
2013-08-16 11:23:00,82.3,65.5,29.92,SW,228,3.0,3.0,57,0.00,,,0.00,Wunderground v.1.15,2013-08-16 18:23:00,
2013-08-16 11:28:00,82.5,65.7,29.92,SSE,165,3.0,4.0,57,0.00,,,0.00,Wunderground v.1.15,2013-08-16 18:28:00,
2013-08-16 11:33:00,83.0,65.7,29.92,South,182,3.0,3.0,56,0.00,,,0.00,Wunderground v.1.15,2013-08-16 18:33:00,
2013-08-16 11:38:00,83.2,65.4,29.92,SSW,207,3.0,3.0,55,0.00,,,0.00,Wunderground v.1.15,2013-08-16 18:38:00,
2013-08-16 11:43:00,83.4,65.5,29.92,SE,140,3.0,3.0,55,0.00,,,0.00,Wunderground v.1.15,2013-08-16 18:43:00,
2013-08-16 11:48:00,83.8,65.4,29.92,SSE,159,3.0,4.0,54,0.00,,,0.00,Wunderground v.1.15,2013-08-16 18:48:00,
2013-08-16 11:53:00,83.7,65.3,29.92,SW,215,3.0,3.0,54,0.00,,,0.00,Wunderground v.1.15,2013-08-16 18:53:00,
2013-08-16 12:03:00,83.7,65.8,29.91,NE,44,4.0,4.0,55,0.00,,,0.00,Wunderground v.1.15,2013-08-16 19:03:00,
2013-08-16 12:08:00,84.0,65.6,29.91,SW,227,4.0,5.0,54,0.00,,,0.00,Wunderground v.1.15,2013-08-16 19:08:00,
2013-08-16 12:13:00,84.1,66.2,29.91,SW,232,4.0,8.0,55,0.00,,,0.00,Wunderground v.1.15,2013-08-16 19:13:00,
2013-08-16 12:23:00,84.1,66.7,29.91,SSW,197,6.0,6.0,56,0.00,,,0.00,Wunderground v.1.15,2013-08-16 19:23:00,
2013-08-16 12:28:00,84.2,66.8,29.91,SSE,151,5.0,6.0,56,0.00,,,0.00,Wunderground v.1.15,2013-08-16 19:28:00,
2013-08-16 12:38:00,84.4,66.5,29.91,SSW,205,5.0,6.0,55,0.00,,,0.00,Wunderground v.1.15,2013-08-16 19:38:00,
2013-08-16 12:43:00,83.9,66.0,29.91,WSW,241,6.0,6.0,55,0.00,,,0.00,Wunderground v.1.15,2013-08-16 19:43:00,
2013-08-16 12:48:00,83.9,66.0,29.91,SSW,200,5.0,6.0,55,0.00,,,0.00,Wunderground v.1.15,2013-08-16 19:48:00,
2013-08-16 12:53:00,83.9,65.5,29.91,SW,215,5.0,5.0,54,0.00,,,0.00,Wunderground v.1.15,2013-08-16 19:53:00,
2013-08-16 12:58:00,84.1,65.1,29.91,SSW,206,5.0,5.0,53,0.00,,,0.00,Wunderground v.1.15,2013-08-16 19:58:00,
2013-08-16 13:08:00,84.0,64.5,29.90,SSW,202,4.0,6.0,52,0.00,,,0.00,Wunderground v.1.15,2013-08-16 20:08:00,
2013-08-16 13:13:00,84.3,64.8,29.90,SSW,207,5.0,5.0,52,0.00,,,0.00,Wunderground v.1.15,2013-08-16 20:13:00,
2013-08-16 13:18:00,84.6,64.5,29.90,South,172,5.0,5.0,51,0.00,,,0.00,Wunderground v.1.15,2013-08-16 20:18:00,
2013-08-16 13:23:00,84.9,64.2,29.90,SSW,194,5.0,5.0,50,0.00,,,0.00,Wunderground v.1.15,2013-08-16 20:23:00,
2013-08-16 13:33:00,85.4,64.1,29.90,SSE,155,5.0,5.0,49,0.00,,,0.00,Wunderground v.1.15,2013-08-16 20:33:00,
2013-08-16 13:43:00,86.1,64.7,29.90,SSE,152,4.0,5.0,49,0.00,,,0.00,Wunderground v.1.15,2013-08-16 20:43:00,
2013-08-16 13:48:00,85.9,64.5,29.90,WSW,238,5.0,8.0,49,0.00,,,0.00,Wunderground v.1.15,2013-08-16 20:48:00,
2013-08-16 13:58:00,86.8,64.8,29.90,SSW,200,5.0,5.0,48,0.00,,,0.00,Wunderground v.1.15,2013-08-16 20:58:00,
2013-08-16 14:03:00,86.4,64.4,29.89,WSW,242,5.0,7.0,48,0.00,,,0.00,Wunderground v.1.15,2013-08-16 21:03:00,
2013-08-16 14:08:00,86.6,65.2,29.89,SW,215,6.0,7.0,49,0.00,,,0.00,Wunderground v.1.15,2013-08-16 21:08:00,
2013-08-16 14:18:00,87.3,65.2,29.89,WSW,257,4.0,5.0,48,0.00,,,0.00,Wunderground v.1.15,2013-08-16 21:18:00,
2013-08-16 14:23:00,87.4,64.7,29.89,SSW,205,5.0,5.0,47,0.00,,,0.00,Wunderground v.1.15,2013-08-16 21:23:00,
2013-08-16 14:28:00,87.5,64.8,29.89,SW,214,5.0,5.0,47,0.00,,,0.00,Wunderground v.1.15,2013-08-16 21:28:00,
2013-08-16 14:38:00,87.8,65.7,29.88,SW,227,5.0,7.0,48,0.00,,,0.00,Wunderground v.1.15,2013-08-16 21:38:00,
2013-08-16 14:48:00,88.0,65.8,29.88,SW,236,5.0,8.0,48,0.00,,,0.00,Wunderground v.1.15,2013-08-16 21:48:00,
2013-08-16 14:53:00,88.1,65.3,29.88,WSW,254,5.0,5.0,47,0.00,,,0.00,Wunderground v.1.15,2013-08-16 21:53:00,
2013-08-16 14:58:00,89.0,64.9,29.88,WNW,287,4.0,5.0,45,0.00,,,0.00,Wunderground v.1.15,2013-08-16 21:58:00,
2013-08-16 15:08:00,88.4,63.7,29.88,WSW,238,6.0,6.0,44,0.00,,,0.00,Wunderground v.1.15,2013-08-16 22:08:00,
2013-08-16 15:13:00,88.3,64.3,29.87,WSW,237,5.0,5.0,45,0.00,,,0.00,Wunderground v.1.15,2013-08-16 22:13:00,
2013-08-16 15:18:00,88.7,64.0,29.87,SW,219,4.0,6.0,44,0.00,,,0.00,Wunderground v.1.15,2013-08-16 22:18:00,
2013-08-16 15:23:00,89.1,63.0,29.87,WNW,292,4.0,5.0,42,0.00,,,0.00,Wunderground v.1.15,2013-08-16 22:23:00,
2013-08-16 15:33:00,88.7,62.0,29.87,West,263,5.0,5.0,41,0.00,,,0.00,Wunderground v.1.15,2013-08-16 22:33:00,
2013-08-16 15:43:00,88.2,62.9,29.87,West,267,5.0,5.0,43,0.00,,,0.00,Wunderground v.1.15,2013-08-16 22:43:00,
2013-08-16 15:53:00,88.5,61.8,29.86,SW,232,4.0,9.0,41,0.00,,,0.00,Wunderground v.1.15,2013-08-16 22:53:00,
2013-08-16 15:58:00,88.0,62.7,29.86,WSW,243,5.0,9.0,43,0.00,,,0.00,Wunderground v.1.15,2013-08-16 22:58:00,
2013-08-16 16:08:00,88.4,62.4,29.86,SW,229,5.0,5.0,42,0.00,,,0.00,Wunderground v.1.15,2013-08-16 23:08:00,
2013-08-16 16:13:00,88.4,63.1,29.86,WSW,250,4.0,4.0,43,0.00,,,0.00,Wunderground v.1.15,2013-08-16 23:13:00,
2013-08-16 16:18:00,88.1,62.8,29.86,SW,221,4.0,6.0,43,0.00,,,0.00,Wunderground v.1.15,2013-08-16 23:18:00,
2013-08-16 16:23:00,88.0,62.7,29.86,WSW,254,4.0,4.0,43,0.00,,,0.00,Wunderground v.1.15,2013-08-16 23:23:00,
2013-08-16 16:28:00,88.4,63.7,29.86,NW,322,4.0,4.0,44,0.00,,,0.00,Wunderground v.1.15,2013-08-16 23:28:00,
2013-08-16 16:38:00,88.1,64.7,29.86,WSW,248,4.0,4.0,46,0.00,,,0.00,Wunderground v.1.15,2013-08-16 23:38:00,
2013-08-16 16:43:00,87.8,64.4,29.86,SSW,207,4.0,6.0,46,0.00,,,0.00,Wunderground v.1.15,2013-08-16 23:43:00,
2013-08-16 16:53:00,86.5,64.5,29.86,SW,229,5.0,5.0,48,0.00,,,0.00,Wunderground v.1.15,2013-08-16 23:53:00,
2013-08-16 16:58:00,85.9,64.5,29.86,WSW,238,5.0,5.0,49,0.00,,,0.00,Wunderground v.1.15,2013-08-16 23:58:00,
2013-08-16 17:08:00,85.6,64.2,29.85,WNW,295,5.0,10.0,49,0.00,,,0.00,Wunderground v.1.15,2013-08-17 00:08:00,
2013-08-16 17:13:00,85.6,63.1,29.85,West,259,4.0,4.0,47,0.00,,,0.00,Wunderground v.1.15,2013-08-17 00:13:00,
2013-08-16 17:23:00,85.7,62.5,29.85,WSW,240,4.0,5.0,46,0.00,,,0.00,Wunderground v.1.15,2013-08-17 00:23:00,
2013-08-16 17:28:00,85.4,62.3,29.85,WSW,243,5.0,5.0,46,0.00,,,0.00,Wunderground v.1.15,2013-08-17 00:28:00,
2013-08-16 17:38:00,84.9,61.2,29.85,SSW,195,5.0,5.0,45,0.00,,,0.00,Wunderground v.1.15,2013-08-17 00:38:00,
2013-08-16 17:43:00,84.9,56.5,29.85,SW,229,4.0,4.0,38,0.00,,,0.00,Wunderground v.1.15,2013-08-17 00:43:00,
2013-08-16 17:53:00,84.7,57.0,29.85,SW,232,5.0,8.0,39,0.00,,,0.00,Wunderground v.1.15,2013-08-17 00:53:00,
2013-08-16 18:03:00,83.8,55.5,29.85,SW,228,6.0,6.0,38,0.00,,,0.00,Wunderground v.1.15,2013-08-17 01:03:00,
2013-08-16 18:08:00,83.6,58.1,29.86,SW,217,5.0,8.0,42,0.00,,,0.00,Wunderground v.1.15,2013-08-17 01:08:00,
2013-08-16 18:13:00,83.2,58.4,29.86,SW,236,5.0,6.0,43,0.00,,,0.00,Wunderground v.1.15,2013-08-17 01:13:00,
2013-08-16 18:23:00,83.0,58.8,29.86,WSW,253,4.0,4.0,44,0.00,,,0.00,Wunderground v.1.15,2013-08-17 01:23:00,
2013-08-16 18:28:00,83.0,60.7,29.86,SSW,206,4.0,4.0,47,0.00,,,0.00,Wunderground v.1.15,2013-08-17 01:28:00,
2013-08-16 18:33:00,82.9,61.2,29.86,West,259,3.0,3.0,48,0.00,,,0.00,Wunderground v.1.15,2013-08-17 01:33:00,
2013-08-16 18:38:00,82.4,60.7,29.86,West,275,3.0,5.0,48,0.00,,,0.00,Wunderground v.1.15,2013-08-17 01:38:00,
2013-08-16 18:43:00,82.1,61.0,29.86,WSW,257,3.0,3.0,49,0.00,,,0.00,Wunderground v.1.15,2013-08-17 01:43:00,
2013-08-16 18:48:00,81.6,60.6,29.86,WNW,290,3.0,3.0,49,0.00,,,0.00,Wunderground v.1.15,2013-08-17 01:48:00,
2013-08-16 18:53:00,81.1,60.7,29.86,WNW,282,3.0,4.0,50,0.00,,,0.00,Wunderground v.1.15,2013-08-17 01:53:00,
2013-08-16 18:58:00,80.8,61.0,29.86,WSW,239,3.0,4.0,51,0.00,,,0.00,Wunderground v.1.15,2013-08-17 01:58:00,
2013-08-16 19:03:00,80.5,60.7,29.86,SW,227,3.0,3.0,51,0.00,,,0.00,Wunderground v.1.15,2013-08-17 02:03:00,
2013-08-16 19:08:00,80.4,61.7,29.87,West,273,3.0,3.0,53,0.00,,,0.00,Wunderground v.1.15,2013-08-17 02:08:00,
2013-08-16 19:18:00,79.2,61.1,29.87,WSW,237,2.0,4.0,54,0.00,,,0.00,Wunderground v.1.15,2013-08-17 02:18:00,
2013-08-16 19:23:00,78.7,61.2,29.87,West,263,3.0,4.0,55,0.00,,,0.00,Wunderground v.1.15,2013-08-17 02:23:00,
2013-08-16 19:28:00,78.3,60.8,29.87,SW,222,2.0,5.0,55,0.00,,,0.00,Wunderground v.1.15,2013-08-17 02:28:00,
2013-08-16 19:38:00,77.6,61.2,29.87,WSW,238,2.0,2.0,57,0.00,,,0.00,Wunderground v.1.15,2013-08-17 02:38:00,
2013-08-16 19:43:00,77.3,61.4,29.87,WSW,238,2.0,2.0,58,0.00,,,0.00,Wunderground v.1.15,2013-08-17 02:43:00,
2013-08-16 19:53:00,76.9,62.0,29.88,WNW,286,2.0,2.0,60,0.00,,,0.00,Wunderground v.1.15,2013-08-17 02:53:00,
2013-08-16 19:58:00,76.6,62.1,29.88,SW,228,2.0,2.0,61,0.00,,,0.00,Wunderground v.1.15,2013-08-17 02:58:00,
2013-08-16 20:03:00,76.4,62.0,29.88,SW,228,2.0,2.0,61,0.00,,,0.00,Wunderground v.1.15,2013-08-17 03:03:00,
2013-08-16 20:08:00,76.2,61.8,29.88,SW,228,1.0,2.0,61,0.00,,,0.00,Wunderground v.1.15,2013-08-17 03:08:00,
2013-08-16 20:13:00,76.2,61.8,29.89,SW,229,1.0,1.0,61,0.00,,,0.00,Wunderground v.1.15,2013-08-17 03:13:00,
2013-08-16 20:23:00,75.7,62.2,29.89,NW,315,1.0,1.0,63,0.00,,,0.00,Wunderground v.1.15,2013-08-17 03:23:00,
2013-08-16 20:33:00,75.3,61.8,29.89,WNW,282,1.0,1.0,63,0.00,,,0.00,Wunderground v.1.15,2013-08-17 03:33:00,
2013-08-16 20:38:00,75.2,62.2,29.90,WSW,239,2.0,2.0,64,0.00,,,0.00,Wunderground v.1.15,2013-08-17 03:38:00,
2013-08-16 20:43:00,75.1,62.1,29.90,WSW,240,1.0,1.0,64,0.00,,,0.00,Wunderground v.1.15,2013-08-17 03:43:00,
2013-08-16 20:53:00,74.7,62.1,29.90,West,277,1.0,2.0,65,0.00,,,0.00,Wunderground v.1.15,2013-08-17 03:53:00,
2013-08-16 21:03:00,74.2,60.3,29.91,NW,306,1.0,1.0,62,0.00,,,0.00,Wunderground v.1.15,2013-08-17 04:03:00,
2013-08-16 21:13:00,74.0,60.2,29.91,WSW,249,1.0,1.0,62,0.00,,,0.00,Wunderground v.1.15,2013-08-17 04:13:00,
2013-08-16 21:18:00,74.0,61.0,29.91,WSW,256,2.0,2.0,64,0.00,,,0.00,Wunderground v.1.15,2013-08-17 04:18:00,
2013-08-16 21:23:00,73.9,61.0,29.91,WSW,256,1.0,1.0,64,0.00,,,0.00,Wunderground v.1.15,2013-08-17 04:23:00,
2013-08-16 21:33:00,73.4,60.0,29.92,WSW,256,1.0,2.0,63,0.00,,,0.00,Wunderground v.1.15,2013-08-17 04:33:00,
2013-08-16 21:43:00,73.1,60.2,29.92,WSW,256,1.0,1.0,64,0.00,,,0.00,Wunderground v.1.15,2013-08-17 04:43:00,
2013-08-16 21:53:00,72.9,60.4,29.92,WSW,256,1.0,1.0,65,0.00,,,0.00,Wunderground v.1.15,2013-08-17 04:53:00,
2013-08-16 22:03:00,72.6,60.6,29.92,WSW,256,1.0,1.0,66,0.00,,,0.00,Wunderground v.1.15,2013-08-17 05:03:00,
2013-08-16 22:08:00,72.5,60.9,29.92,WSW,256,1.0,1.0,67,0.00,,,0.00,Wunderground v.1.15,2013-08-17 05:08:00,
2013-08-16 22:13:00,72.4,61.2,29.91,WSW,256,1.0,1.0,68,0.00,,,0.00,Wunderground v.1.15,2013-08-17 05:13:00,
2013-08-16 22:18:00,72.3,62.0,29.91,WSW,256,1.0,1.0,70,0.00,,,0.00,Wunderground v.1.15,2013-08-17 05:18:00,
2013-08-16 22:23:00,72.2,62.3,29.91,WSW,256,1.0,1.0,71,0.00,,,0.00,Wunderground v.1.15,2013-08-17 05:23:00,
2013-08-16 22:28:00,72.1,62.2,29.91,WSW,256,1.0,1.0,71,0.00,,,0.00,Wunderground v.1.15,2013-08-17 05:28:00,
2013-08-16 22:38:00,71.8,62.3,29.91,WSW,256,1.0,1.0,72,0.00,,,0.00,Wunderground v.1.15,2013-08-17 05:38:00,
2013-08-16 22:43:00,71.7,62.6,29.91,WSW,256,1.0,1.0,73,0.00,,,0.00,Wunderground v.1.15,2013-08-17 05:43:00,
2013-08-16 22:48:00,71.6,62.5,29.92,WSW,256,1.0,3.0,73,0.00,,,0.00,Wunderground v.1.15,2013-08-17 05:48:00,
2013-08-16 22:53:00,71.5,62.4,29.91,WSW,256,1.0,3.0,73,0.00,,,0.00,Wunderground v.1.15,2013-08-17 05:53:00,
2013-08-16 22:58:00,71.3,62.2,29.92,WSW,256,1.0,3.0,73,0.00,,,0.00,Wunderground v.1.15,2013-08-17 05:58:00,
2013-08-16 23:08:00,71.0,62.3,29.92,WSW,256,1.0,1.0,74,0.00,,,0.00,Wunderground v.1.15,2013-08-17 06:08:00,
2013-08-16 23:13:00,70.8,62.5,29.92,WSW,256,0.0,0.0,75,0.00,,,0.00,Wunderground v.1.15,2013-08-17 06:13:00,
2013-08-16 23:18:00,70.7,62.4,29.91,WSW,256,0.0,0.0,75,0.00,,,0.00,Wunderground v.1.15,2013-08-17 06:18:00,
2013-08-16 23:23:00,70.7,62.4,29.91,WSW,256,0.0,0.0,75,0.00,,,0.00,Wunderground v.1.15,2013-08-17 06:23:00,
2013-08-16 23:33:00,70.6,61.9,29.91,WSW,256,1.0,1.0,74,0.00,,,0.00,Wunderground v.1.15,2013-08-17 06:33:00,
2013-08-16 23:38:00,70.5,61.8,29.91,WSW,256,1.0,1.0,74,0.00,,,0.00,Wunderground v.1.15,2013-08-17 06:38:00,
2013-08-16 23:43:00,70.4,62.1,29.91,WSW,256,1.0,1.0,75,0.00,,,0.00,Wunderground v.1.15,2013-08-17 06:43:00,
2013-08-16 23:53:00,70.2,62.3,29.92,WSW,256,1.0,2.0,76,0.00,,,0.00,Wunderground v.1.15,2013-08-17 06:53:00,
2013-08-16 23:58:00,70.0,62.1,29.92,WSW,256,1.0,2.0,76,0.00,,,0.00,Wunderground v.1.15,2013-08-17 06:58:00,